Terminal Aerodrome Forecast
Issued by NWS Albuquerque, NM

Home | Current Version | Previous Version | Text Only | Print | Product List | Glossary On
Versions: 1 2 3 4 5 6 7 8 9 10 11 12
000
FTUS45 KABQ 231139
TAFABQ
TAF
KABQ 231139Z 2312/2412 VRB06KT P6SM FEW130
     FM231800 28009KT P6SM SKC
     FM232300 28010KT P6SM VCSH BKN110
      TEMPO 2323/2402 28010G20KT
     FM240300 VRB06KT P6SM BKN110=

USA.gov is the U.S. government's official web portal to all federal, state and local government web resources and services.